Terminal Aerodrome Forecast
Issued by NWS

Home | Current Version | Previous Version | Text Only | Print | Product List | Glossary Off
Versions: 1 2 3 4 5 6 7 8 9 10 11 12 13 14

000
FTUS43 KPAH 231100
TAFCGI
TAF
KCGI 231120Z 2312/2412 00000KT 1/4SM FG VV002
      TEMPO 2312/2313 3SM BR SCT002
     FM231400 07005KT P6SM SCT250
     FM240000 09002KT P6SM SCT250
     FM240600 00000KT 3SM BR SKC=

USA.gov is the U.S. government's official web portal to all federal, state and local government web resources and services.